<?xml version='1.0' encoding='UTF-8'?><gpx version="1.1" creator="JPX - https://github.com/jenetics/jpx" xmlns="http://www.topografix.com/GPX/1/1"><trk><trkseg><trkpt lat="41.97416999910073" lon="12.16008500811883"><ele>123.57142857142858</ele><time>2026-04-11T13:54:53.001Z</time></trkpt><trkpt lat="41.97419805899569" lon="12.159999419073193"><ele>124.14285714285714</ele><time>2026-04-11T13:55:00.001Z</time></trkpt><trkpt lat="41.9742598991616" lon="12.159977575583177"><ele>124.71428571428572</ele><time>2026-04-11T13:55:03.001Z</time></trkpt><trkpt lat="41.97431359458218" lon="12.160034779352042"><ele>125.28571428571429</ele><time>2026-04-11T13:55:07.001Z</time></trkpt><trkpt lat="41.9743559070626" lon="12.16010388995633"><ele>125.85714285714286</ele><time>2026-04-11T13:55:10.001Z</time></trkpt><trkpt lat="41.97443175987535" lon="12.160133685672534"><ele>126.42857142857143</ele><time>2026-04-11T13:55:14.001Z</time></trkpt><trkpt lat="41.97448242406294" lon="12.160048886094344"><ele>127.0</ele><time>2026-04-11T13:55:17.001Z</time></trkpt><trkpt lat="41.974500771573446" lon="12.159965307123676"><ele>127.00000000000001</ele><time>2026-04-11T13:55:20.001Z</time></trkpt><trkpt lat="41.97453396511802" lon="12.159876404431929"><ele>127.0</ele><time>2026-04-11T13:55:24.001Z</time></trkpt><trkpt lat="41.974547713449375" lon="12.159766415011386"><ele>127.0</ele><time>2026-04-11T13:55:28.001Z</time></trkpt><trkpt lat="41.97459904400581" lon="12.159689207453628"><ele>127.0</ele><time>2026-04-11T13:55:32.001Z</time></trkpt><trkpt lat="41.97467103110805" lon="12.159629965885603"><ele>127.00000000000001</ele><time>2026-04-11T13:55:53.001Z</time></trkpt><trkpt lat="41.97472952713258" lon="12.159597134622834"><ele>127.0</ele><time>2026-04-11T13:55:55.001Z</time></trkpt><trkpt lat="41.97478020917509" lon="12.159494663614703"><ele>126.14285714285714</ele><time>2026-04-11T13:55:58.001Z</time></trkpt><trkpt lat="41.974797962785935" lon="12.159402537460553"><ele>125.28571428571428</ele><time>2026-04-11T13:56:01.001Z</time></trkpt><trkpt lat="41.97482608467034" lon="12.159309603672389"><ele>124.42857142857142</ele><time>2026-04-11T13:56:07.001Z</time></trkpt><trkpt lat="41.97482826503794" lon="12.159216025903833"><ele>123.57142857142857</ele><time>2026-04-11T13:56:11.001Z</time></trkpt><trkpt lat="41.974825297185234" lon="12.159120050198691"><ele>122.7142857142857</ele><time>2026-04-11T13:56:15.001Z</time></trkpt><trkpt lat="41.974818050834536" lon="12.159014547084121"><ele>121.85714285714285</ele><time>2026-04-11T13:56:19.001Z</time></trkpt><trkpt lat="41.974789368575415" lon="12.158917495044484"><ele>121.0</ele><time>2026-04-11T13:56:23.001Z</time></trkpt><trkpt lat="41.97472386223676" lon="12.158938982103571"><ele>121.0</ele><time>2026-04-11T13:56:26Z</time></trkpt><trkpt lat="41.97471457613898" lon="12.159023790072537"><ele>120.99999999999999</ele><time>2026-04-11T13:56:29Z</time></trkpt><trkpt lat="41.97470665356978" lon="12.15913376753965"><ele>121.0</ele><time>2026-04-11T13:56:33Z</time></trkpt><trkpt lat="41.97469236034404" lon="12.159239612118121"><ele>121.0</ele><time>2026-04-11T13:56:38Z</time></trkpt><trkpt lat="41.974665547140134" lon="12.159326411201599"><ele>120.99999999999999</ele><time>2026-04-11T13:56:41Z</time></trkpt><trkpt lat="41.97462163076362" lon="12.159398891602681"><ele>121.0</ele><time>2026-04-11T13:56:45Z</time></trkpt><trkpt lat="41.97457947586468" lon="12.159475968333934"><ele>121.0</ele><time>2026-04-11T13:56:49Z</time></trkpt><trkpt lat="41.974534371283255" lon="12.159551908638276"><ele>121.0</ele><time>2026-04-11T13:56:53Z</time></trkpt><trkpt lat="41.97449688815856" lon="12.159635606751626"><ele>120.99999999999999</ele><time>2026-04-11T13:56:57Z</time></trkpt><trkpt lat="41.974450630467906" lon="12.15970375678825"><ele>121.0</ele><time>2026-04-11T13:57:01Z</time></trkpt><trkpt lat="41.97438642400506" lon="12.159688535916915"><ele>121.0</ele><time>2026-04-11T13:57:05Z</time></trkpt><trkpt lat="41.97437070358358" lon="12.159602085194367"><ele>120.99999999999999</ele><time>2026-04-11T13:57:09Z</time></trkpt><trkpt lat="41.9743851400206" lon="12.159515984263058"><ele>121.0</ele><time>2026-04-11T13:57:42.001Z</time></trkpt><trkpt lat="41.97438865677789" lon="12.159416153421033"><ele>121.0</ele><time>2026-04-11T13:58:05.001Z</time></trkpt><trkpt lat="41.97446648890243" lon="12.159381322331951"><ele>121.0</ele><time>2026-04-11T13:58:09.001Z</time></trkpt><trkpt lat="41.9745367378757" lon="12.15937394078318"><ele>120.99999999999999</ele><time>2026-04-11T13:58:12.001Z</time></trkpt><trkpt lat="41.97455566199463" lon="12.159271901820155"><ele>121.0</ele><time>2026-04-11T13:58:15.001Z</time></trkpt><trkpt lat="41.97456881474186" lon="12.159166175784568"><ele>121.0</ele><time>2026-04-11T13:58:17.001Z</time></trkpt><trkpt lat="41.974594906157094" lon="12.159079505908153"><ele>120.99999999999999</ele><time>2026-04-11T13:58:19.001Z</time></trkpt><trkpt lat="41.974617736883246" lon="12.158997869963766"><ele>121.0</ele><time>2026-04-11T13:58:21.001Z</time></trkpt><trkpt lat="41.974627053627216" lon="12.158899745338296"><ele>121.0</ele><time>2026-04-11T13:58:23.001Z</time></trkpt><trkpt lat="41.97464410177327" lon="12.15881239069769"><ele>119.71428571428571</ele><time>2026-04-11T13:58:26.001Z</time></trkpt><trkpt lat="41.97469448759471" lon="12.158735978289576"><ele>118.42857142857142</ele><time>2026-04-11T13:58:57.001Z</time></trkpt><trkpt lat="41.97473072686898" lon="12.158650113489635"><ele>117.14285714285714</ele><time>2026-04-11T13:58:59.001Z</time></trkpt><trkpt lat="41.97475372352833" lon="12.158550146363948"><ele>115.85714285714286</ele><time>2026-04-11T13:59:02.001Z</time></trkpt><trkpt lat="41.974791383980005" lon="12.158472085600575"><ele>114.57142857142857</ele><time>2026-04-11T13:59:04.001Z</time></trkpt><trkpt lat="41.97479903200566" lon="12.158374647046365"><ele>113.28571428571428</ele><time>2026-04-11T13:59:14.001Z</time></trkpt><trkpt lat="41.97480714614396" lon="12.158268838086164"><ele>112.0</ele><time>2026-04-11T13:59:16.001Z</time></trkpt><trkpt lat="41.97478100602576" lon="12.158181652578628"><ele>112.0</ele><time>2026-04-11T13:59:19.001Z</time></trkpt><trkpt lat="41.974724718430416" lon="12.15812420415007"><ele>112.0</ele><time>2026-04-11T13:59:22.001Z</time></trkpt><trkpt lat="41.97477638516419" lon="12.158172717836807"><ele>112.0</ele><time>2026-04-11T13:59:50.001Z</time></trkpt><trkpt lat="41.97471497219899" lon="12.15813406015367"><ele>112.0</ele><time>2026-04-11T13:59:56.001Z</time></trkpt><trkpt lat="41.97467332800588" lon="12.158223962203358"><ele>112.0</ele><time>2026-04-11T14:00:00.001Z</time></trkpt><trkpt lat="41.97464807128443" lon="12.158306490832718"><ele>112.0</ele><time>2026-04-11T14:00:04.001Z</time></trkpt><trkpt lat="41.97463909073475" lon="12.15840145372249"><ele>112.0</ele><time>2026-04-11T14:00:27.001Z</time></trkpt><trkpt lat="41.97460759506861" lon="12.158490111569828"><ele>112.00000000000001</ele><time>2026-04-11T14:00:30.001Z</time></trkpt><trkpt lat="41.97453953057402" lon="12.15850116133956"><ele>112.0</ele><time>2026-04-11T14:00:34.001Z</time></trkpt><trkpt lat="41.974553218553055" lon="12.15838362983862"><ele>112.0</ele><time>2026-04-11T14:00:38.001Z</time></trkpt><trkpt lat="41.974532530404225" lon="12.158285670473765"><ele>112.0</ele><time>2026-04-11T14:00:41.001Z</time></trkpt><trkpt lat="41.97448280537199" lon="12.15821246511669"><ele>112.00000000000001</ele><time>2026-04-11T14:00:45.001Z</time></trkpt><trkpt lat="41.97442933940004" lon="12.15812525200547"><ele>112.0</ele><time>2026-04-11T14:00:57.001Z</time></trkpt><trkpt lat="41.97435116301532" lon="12.158064059527787"><ele>112.00000000000001</ele><time>2026-04-11T14:01:00.001Z</time></trkpt><trkpt lat="41.974266972810774" lon="12.158019419566003"><ele>112.0</ele><time>2026-04-11T14:01:03.001Z</time></trkpt><trkpt lat="41.974182653934086" lon="12.158019062642701"><ele>112.0</ele><time>2026-04-11T14:01:06.001Z</time></trkpt><trkpt lat="41.97412683501585" lon="12.158062147536882"><ele>112.0</ele><time>2026-04-11T14:01:10.001Z</time></trkpt><trkpt lat="41.97408623047899" lon="12.158141525128402"><ele>112.00000000000001</ele><time>2026-04-11T14:01:14.001Z</time></trkpt><trkpt lat="41.97409372205924" lon="12.158241087717961"><ele>112.0</ele><time>2026-04-11T14:01:20.001Z</time></trkpt><trkpt lat="41.97409575222445" lon="12.158343226297097"><ele>112.00000000000001</ele><time>2026-04-11T14:01:25.001Z</time></trkpt><trkpt lat="41.974020205767765" lon="12.158339077666811"><ele>112.0</ele><time>2026-04-11T14:01:29.001Z</time></trkpt><trkpt lat="41.97396905186515" lon="12.158261786561486"><ele>112.0</ele><time>2026-04-11T14:02:27.001Z</time></trkpt><trkpt lat="41.97394840355657" lon="12.158131848591948"><ele>112.0</ele><time>2026-04-11T14:02:30.001Z</time></trkpt><trkpt lat="41.97390164654833" lon="12.158047799084573"><ele>112.00000000000001</ele><time>2026-04-11T14:02:33.001Z</time></trkpt><trkpt lat="41.97385782614747" lon="12.15796311070155"><ele>112.0</ele><time>2026-04-11T14:02:36.001Z</time></trkpt><trkpt lat="41.9738058772648" lon="12.157893264877174"><ele>110.50000000000001</ele><time>2026-04-11T14:02:39.001Z</time></trkpt><trkpt lat="41.97371602801825" lon="12.157869068959862"><ele>109.0</ele><time>2026-04-11T14:02:42.001Z</time></trkpt><trkpt lat="41.97366299718519" lon="12.15792498110124"><ele>107.5</ele><time>2026-04-11T14:03:43Z</time></trkpt><trkpt lat="41.97360349073044" lon="12.157992506883522"><ele>106.0</ele><time>2026-04-11T14:03:45Z</time></trkpt><trkpt lat="41.973534993048084" lon="12.158019639282712"><ele>104.50000000000001</ele><time>2026-04-11T14:03:52Z</time></trkpt><trkpt lat="41.97346406160171" lon="12.157974895106548"><ele>103.0</ele><time>2026-04-11T14:03:54Z</time></trkpt><trkpt lat="41.973399882067504" lon="12.15791966351972"><ele>102.71428571428571</ele><time>2026-04-11T14:03:57Z</time></trkpt><trkpt lat="41.97334027514636" lon="12.157880299781597"><ele>102.42857142857143</ele><time>2026-04-11T14:03:59Z</time></trkpt><trkpt lat="41.97328066119423" lon="12.15784330271016"><ele>102.14285714285714</ele><time>2026-04-11T14:04:01Z</time></trkpt><trkpt lat="41.97320602140197" lon="12.1578046695444"><ele>101.85714285714286</ele><time>2026-04-11T14:04:03Z</time></trkpt><trkpt lat="41.973167178310355" lon="12.157881070568047"><ele>101.57142857142857</ele><time>2026-04-11T14:04:07Z</time></trkpt><trkpt lat="41.97312887168515" lon="12.157966260494659"><ele>101.28571428571428</ele><time>2026-04-11T14:04:10Z</time></trkpt><trkpt lat="41.97310625353057" lon="12.158050941410428"><ele>101.0</ele><time>2026-04-11T14:04:13Z</time></trkpt><trkpt lat="41.973038631468995" lon="12.158101568329444"><ele>100.99999999999999</ele><time>2026-04-11T14:04:17Z</time></trkpt><trkpt lat="41.972988552832724" lon="12.158163429888498"><ele>101.0</ele><time>2026-04-11T14:04:21Z</time></trkpt><trkpt lat="41.972932187079" lon="12.158204550281468"><ele>101.0</ele><time>2026-04-11T14:04:43Z</time></trkpt><trkpt lat="41.972894431682434" lon="12.158295773452231"><ele>101.0</ele><time>2026-04-11T14:04:46Z</time></trkpt><trkpt lat="41.97285398253211" lon="12.1584088652867"><ele>100.99999999999999</ele><time>2026-04-11T14:04:50Z</time></trkpt><trkpt lat="41.972852727014725" lon="12.158516542517058"><ele>101.0</ele><time>2026-04-11T14:04:56Z</time></trkpt><trkpt lat="41.972899026427186" lon="12.158596591463132"><ele>101.85714285714286</ele><time>2026-04-11T14:05:01Z</time></trkpt><trkpt lat="41.97296844623851" lon="12.15857701101253"><ele>102.71428571428571</ele><time>2026-04-11T14:05:05Z</time></trkpt><trkpt lat="41.97301706967115" lon="12.158508827894412"><ele>103.57142857142858</ele><time>2026-04-11T14:05:09Z</time></trkpt><trkpt lat="41.9730563264565" lon="12.158418870669756"><ele>104.42857142857143</ele><time>2026-04-11T14:05:13Z</time></trkpt><trkpt lat="41.97308993141915" lon="12.158334917099602"><ele>105.28571428571429</ele><time>2026-04-11T14:05:17Z</time></trkpt><trkpt lat="41.973155747570225" lon="12.158269060693243"><ele>106.14285714285715</ele><time>2026-04-11T14:05:21Z</time></trkpt><trkpt lat="41.97323359622395" lon="12.158267416700525"><ele>107.0</ele><time>2026-04-11T14:05:25Z</time></trkpt><trkpt lat="41.97330100978077" lon="12.158285081651455"><ele>107.83333333333333</ele><time>2026-04-11T14:05:29Z</time></trkpt><trkpt lat="41.97337497507135" lon="12.158291366848312"><ele>108.66666666666666</ele><time>2026-04-11T14:05:33Z</time></trkpt><trkpt lat="41.97344544756622" lon="12.158297418283398"><ele>109.5</ele><time>2026-04-11T14:05:37Z</time></trkpt><trkpt lat="41.97352261256366" lon="12.158223680124914"><ele>110.33333333333334</ele><time>2026-04-11T14:06:17Z</time></trkpt><trkpt lat="41.97364129238178" lon="12.158205773264823"><ele>111.16666666666667</ele><time>2026-04-11T14:06:21Z</time></trkpt><trkpt lat="41.973731822762915" lon="12.15821207146994"><ele>112.0</ele><time>2026-04-11T14:06:23Z</time></trkpt><trkpt lat="41.97385249036505" lon="12.15824494635006"><ele>112.0</ele><time>2026-04-11T14:06:28Z</time></trkpt><trkpt lat="41.97390488439416" lon="12.158292114449225"><ele>112.0</ele><time>2026-04-11T14:06:30Z</time></trkpt><trkpt lat="41.973955467531724" lon="12.15837152995179"><ele>112.0</ele><time>2026-04-11T14:06:34Z</time></trkpt><trkpt lat="41.974009613141114" lon="12.158418576542715"><ele>112.0</ele><time>2026-04-11T14:06:37Z</time></trkpt><trkpt lat="41.974060130025585" lon="12.158484705404463"><ele>112.0</ele><time>2026-04-11T14:06:41Z</time></trkpt><trkpt lat="41.97412950194675" lon="12.158459856925987"><ele>112.0</ele><time>2026-04-11T14:07:58Z</time></trkpt><trkpt lat="41.97416719070633" lon="12.158533504004552"><ele>112.0</ele><time>2026-04-11T14:08:02Z</time></trkpt><trkpt lat="41.974230844004914" lon="12.15852774733077"><ele>112.00000000000001</ele><time>2026-04-11T14:08:07Z</time></trkpt><trkpt lat="41.97427655211745" lon="12.158409373607507"><ele>112.0</ele><time>2026-04-11T14:08:11Z</time></trkpt><trkpt lat="41.974290168772" lon="12.158309548164182"><ele>112.0</ele><time>2026-04-11T14:08:16Z</time></trkpt><trkpt lat="41.97438249494158" lon="12.158362949568076"><ele>112.0</ele><time>2026-04-11T14:08:31Z</time></trkpt><trkpt lat="41.97435136198832" lon="12.15845267898957"><ele>112.00000000000001</ele><time>2026-04-11T14:08:36Z</time></trkpt><trkpt lat="41.97436447883809" lon="12.15854628828553"><ele>112.0</ele><time>2026-04-11T14:08:41Z</time></trkpt><trkpt lat="41.97445928460593" lon="12.158598078627874"><ele>112.00000000000001</ele><time>2026-04-11T14:08:47Z</time></trkpt><trkpt lat="41.974550682864376" lon="12.158620965571515"><ele>112.0</ele><time>2026-04-11T14:08:53Z</time></trkpt><trkpt lat="41.97458016815212" lon="12.158710023436686"><ele>112.0</ele><time>2026-04-11T14:08:58Z</time></trkpt><trkpt lat="41.9746048167539" lon="12.158796532299343"><ele>112.0</ele><time>2026-04-11T14:09:02Z</time></trkpt><trkpt lat="41.97457963170102" lon="12.158892956742388"><ele>112.00000000000001</ele><time>2026-04-11T14:09:06Z</time></trkpt><trkpt lat="41.97453570616124" lon="12.15897443830601"><ele>112.0</ele><time>2026-04-11T14:09:11Z</time></trkpt><trkpt lat="41.97451542482835" lon="12.159073690229384"><ele>112.0</ele><time>2026-04-11T14:09:15Z</time></trkpt><trkpt lat="41.97444172901411" lon="12.15910164889729"><ele>112.0</ele><time>2026-04-11T14:09:19Z</time></trkpt><trkpt lat="41.9744103721102" lon="12.159020946872877"><ele>112.0</ele><time>2026-04-11T14:09:23Z</time></trkpt><trkpt lat="41.97443334865058" lon="12.15893752503607"><ele>112.0</ele><time>2026-04-11T14:09:27Z</time></trkpt><trkpt lat="41.97445582780252" lon="12.158846825576754"><ele>112.0</ele><time>2026-04-11T14:09:31Z</time></trkpt><trkpt lat="41.9744302554984" lon="12.1587569173535"><ele>112.0</ele><time>2026-04-11T14:09:35Z</time></trkpt><trkpt lat="41.97436918238099" lon="12.158734195139527"><ele>112.0</ele><time>2026-04-11T14:09:38Z</time></trkpt><trkpt lat="41.974291807188514" lon="12.158713547864973"><ele>112.00000000000001</ele><time>2026-04-11T14:10:26Z</time></trkpt><trkpt lat="41.974227524714586" lon="12.15871619384766"><ele>112.0</ele><time>2026-04-11T14:10:30Z</time></trkpt><trkpt lat="41.97416047470348" lon="12.158713533508864"><ele>112.0</ele><time>2026-04-11T14:10:33Z</time></trkpt><trkpt lat="41.97408544876286" lon="12.158680970984113"><ele>112.0</ele><time>2026-04-11T14:11:14Z</time></trkpt><trkpt lat="41.97400419011039" lon="12.158617072163766"><ele>112.00000000000001</ele><time>2026-04-11T14:11:16Z</time></trkpt><trkpt lat="41.973933449234785" lon="12.158558450068908"><ele>112.0</ele><time>2026-04-11T14:11:18Z</time></trkpt><trkpt lat="41.97386504216498" lon="12.15849544368958"><ele>112.00000000000001</ele><time>2026-04-11T14:11:22Z</time></trkpt><trkpt lat="41.97383003931361" lon="12.15858228841005"><ele>112.0</ele><time>2026-04-11T14:11:25Z</time></trkpt><trkpt lat="41.97386480798591" lon="12.158659001991698"><ele>112.0</ele><time>2026-04-11T14:11:29Z</time></trkpt><trkpt lat="41.973907522094706" lon="12.158725793054849"><ele>112.0</ele><time>2026-04-11T14:11:34Z</time></trkpt><trkpt lat="41.97400491936939" lon="12.158712990639202"><ele>112.00000000000001</ele><time>2026-04-11T14:12:52.999Z</time></trkpt><trkpt lat="41.97405939505907" lon="12.158765555837304"><ele>112.0</ele><time>2026-04-11T14:12:56.999Z</time></trkpt><trkpt lat="41.97414406812272" lon="12.158783741641317"><ele>112.00000000000001</ele><time>2026-04-11T14:13:02.999Z</time></trkpt><trkpt lat="41.97423897544873" lon="12.158789102079314"><ele>112.0</ele><time>2026-04-11T14:13:07.999Z</time></trkpt><trkpt lat="41.974304419279875" lon="12.158829099390724"><ele>112.0</ele><time>2026-04-11T14:13:14Z</time></trkpt><trkpt lat="41.97434637876788" lon="12.158916174009565"><ele>112.0</ele><time>2026-04-11T14:13:21Z</time></trkpt><trkpt lat="41.974326690095815" lon="12.159015133100725"><ele>112.00000000000001</ele><time>2026-04-11T14:13:40Z</time></trkpt><trkpt lat="41.974293975505475" lon="12.159096425608107"><ele>112.0</ele><time>2026-04-11T14:13:43Z</time></trkpt><trkpt lat="41.974223860543816" lon="12.159041099584732"><ele>112.0</ele><time>2026-04-11T14:13:51Z</time></trkpt><trkpt lat="41.97421794324839" lon="12.158950195781388"><ele>112.0</ele><time>2026-04-11T14:13:52Z</time></trkpt><trkpt lat="41.974157797501014" lon="12.158915089692073"><ele>112.0</ele><time>2026-04-11T14:14:10Z</time></trkpt><trkpt lat="41.97407686437445" lon="12.158896520464635"><ele>112.0</ele><time>2026-04-11T14:14:15Z</time></trkpt><trkpt lat="41.974003797133285" lon="12.158840348972355"><ele>112.0</ele><time>2026-04-11T14:14:19Z</time></trkpt><trkpt lat="41.973937841765135" lon="12.158797219022501"><ele>112.0</ele><time>2026-04-11T14:14:22Z</time></trkpt><trkpt lat="41.97388734766326" lon="12.158743863720304"><ele>112.0</ele><time>2026-04-11T14:14:26Z</time></trkpt><trkpt lat="41.973801718011146" lon="12.15867032103823"><ele>112.0</ele><time>2026-04-11T14:14:45.999Z</time></trkpt><trkpt lat="41.973756282001744" lon="12.158608884456331"><ele>112.0</ele><time>2026-04-11T14:14:46.999Z</time></trkpt><trkpt lat="41.973703361132245" lon="12.158541860879012"><ele>112.0</ele><time>2026-04-11T14:14:48.999Z</time></trkpt><trkpt lat="41.973663745963925" lon="12.158449148919535"><ele>112.0</ele><time>2026-04-11T14:14:52.999Z</time></trkpt><trkpt lat="41.973587226226556" lon="12.158414233758581"><ele>112.0</ele><time>2026-04-11T14:14:57.999Z</time></trkpt><trkpt lat="41.973514672657736" lon="12.15843504895825"><ele>112.0</ele><time>2026-04-11T14:15:03.999Z</time></trkpt><trkpt lat="41.973487807434346" lon="12.158529276824515"><ele>112.0</ele><time>2026-04-11T14:15:08.999Z</time></trkpt><trkpt lat="41.97348061327593" lon="12.158620545777532"><ele>112.0</ele><time>2026-04-11T14:15:14.999Z</time></trkpt><trkpt lat="41.97346974167721" lon="12.158724664962621"><ele>112.0</ele><time>2026-04-11T14:15:20Z</time></trkpt><trkpt lat="41.973503857925856" lon="12.158819821117671"><ele>112.0</ele><time>2026-04-11T14:15:25Z</time></trkpt><trkpt lat="41.97356173235613" lon="12.158876412202352"><ele>112.0</ele><time>2026-04-11T14:15:28Z</time></trkpt><trkpt lat="41.97360039202226" lon="12.15894512036935"><ele>112.0</ele><time>2026-04-11T14:15:31Z</time></trkpt><trkpt lat="41.97367816022172" lon="12.158910482726249"><ele>112.0</ele><time>2026-04-11T14:15:34Z</time></trkpt><trkpt lat="41.97373335284683" lon="12.158862030266878"><ele>112.0</ele><time>2026-04-11T14:15:36Z</time></trkpt><trkpt lat="41.973794354531094" lon="12.158899181448643"><ele>112.0</ele><time>2026-04-11T14:15:41Z</time></trkpt><trkpt lat="41.97386096284266" lon="12.158891522312464"><ele>111.99999999999999</ele><time>2026-04-11T14:16:40.999Z</time></trkpt><trkpt lat="41.973903250003126" lon="12.15896879554786"><ele>111.99999999999999</ele><time>2026-04-11T14:16:44.999Z</time></trkpt><trkpt lat="41.97406941957193" lon="12.159014745513108"><ele>112.0</ele><time>2026-04-11T14:16:55.999Z</time></trkpt><trkpt lat="41.97414632896374" lon="12.159080288322608"><ele>112.0</ele><time>2026-04-11T14:17:12.999Z</time></trkpt><trkpt lat="41.97408351144804" lon="12.159136689242537"><ele>112.85714285714286</ele><time>2026-04-11T14:17:16.999Z</time></trkpt><trkpt lat="41.97400747733329" lon="12.159150605844284"><ele>113.71428571428572</ele><time>2026-04-11T14:17:24Z</time></trkpt><trkpt lat="41.97394334213021" lon="12.159157423503466"><ele>114.57142857142857</ele><time>2026-04-11T14:17:27Z</time></trkpt><trkpt lat="41.973875780819455" lon="12.159183885216258"><ele>115.42857142857143</ele><time>2026-04-11T14:17:31Z</time></trkpt><trkpt lat="41.97381213618213" lon="12.159200802853658"><ele>116.28571428571429</ele><time>2026-04-11T14:17:34Z</time></trkpt><trkpt lat="41.97375010232662" lon="12.159232886097232"><ele>117.14285714285714</ele><time>2026-04-11T14:17:38Z</time></trkpt><trkpt lat="41.97369075792582" lon="12.159170800305207"><ele>118.0</ele><time>2026-04-11T14:17:41Z</time></trkpt><trkpt lat="41.9736332035239" lon="12.159221215649666"><ele>118.0</ele><time>2026-04-11T14:17:45Z</time></trkpt><trkpt lat="41.973653081355934" lon="12.159308741759359"><ele>118.0</ele><time>2026-04-11T14:17:49Z</time></trkpt><trkpt lat="41.97369564669787" lon="12.159372468043308"><ele>118.0</ele><time>2026-04-11T14:17:54Z</time></trkpt><trkpt lat="41.973667992202394" lon="12.159458564702396"><ele>118.0</ele><time>2026-04-11T14:17:59Z</time></trkpt><trkpt lat="41.97359361613156" lon="12.159462022842"><ele>118.0</ele><time>2026-04-11T14:18:01Z</time></trkpt><trkpt lat="41.9735377218418" lon="12.15951302425379"><ele>118.0</ele><time>2026-04-11T14:18:04Z</time></trkpt><trkpt lat="41.97348718038835" lon="12.15958950859139"><ele>118.0</ele><time>2026-04-11T14:18:08Z</time></trkpt><trkpt lat="41.97345223756979" lon="12.159671682087055"><ele>118.00000000000001</ele><time>2026-04-11T14:18:12Z</time></trkpt><trkpt lat="41.97344605744216" lon="12.15976158971062"><ele>118.0</ele><time>2026-04-11T14:18:16Z</time></trkpt><trkpt lat="41.97346636559777" lon="12.159855751055614"><ele>118.0</ele><time>2026-04-11T14:18:21Z</time></trkpt><trkpt lat="41.97350881496368" lon="12.159940669386387"><ele>118.0</ele><time>2026-04-11T14:18:27Z</time></trkpt><trkpt lat="41.973637864530744" lon="12.15995472464247"><ele>118.00000000000001</ele><time>2026-04-11T14:18:33Z</time></trkpt><trkpt lat="41.9736998158988" lon="12.159927116135128"><ele>118.0</ele><time>2026-04-11T14:18:36.999Z</time></trkpt><trkpt lat="41.973761607576975" lon="12.159888611406142"><ele>118.00000000000001</ele><time>2026-04-11T14:18:40.999Z</time></trkpt><trkpt lat="41.9738117759385" lon="12.159817486784734"><ele>118.0</ele><time>2026-04-11T14:18:44.999Z</time></trkpt><trkpt lat="41.973833803308295" lon="12.159717162048102"><ele>118.0</ele><time>2026-04-11T14:18:48.999Z</time></trkpt><trkpt lat="41.973861009099316" lon="12.159612192787316"><ele>118.0</ele><time>2026-04-11T14:19:11.999Z</time></trkpt><trkpt lat="41.973857221990805" lon="12.15948065144337"><ele>118.00000000000001</ele><time>2026-04-11T14:19:13.999Z</time></trkpt><trkpt lat="41.97390401448865" lon="12.159381945643265"><ele>118.0</ele><time>2026-04-11T14:19:16.999Z</time></trkpt><trkpt lat="41.974049410704104" lon="12.159325701607475"><ele>118.00000000000001</ele><time>2026-04-11T14:19:31Z</time></trkpt><trkpt lat="41.974109092135734" lon="12.159278428105791"><ele>118.0</ele><time>2026-04-11T14:19:36Z</time></trkpt><trkpt lat="41.97420427086799" lon="12.159273866225913"><ele>118.0</ele><time>2026-04-11T14:19:40Z</time></trkpt><trkpt lat="41.974280257206836" lon="12.15928502248592"><ele>118.0</ele><time>2026-04-11T14:19:43Z</time></trkpt><trkpt lat="41.974335269811846" lon="12.159361482465899"><ele>118.00000000000001</ele><time>2026-04-11T14:19:47Z</time></trkpt><trkpt lat="41.97434737623287" lon="12.15945682433125"><ele>118.0</ele><time>2026-04-11T14:19:51Z</time></trkpt><trkpt lat="41.97427898874177" lon="12.159406875875481"><ele>118.00000000000001</ele><time>2026-04-11T14:19:55Z</time></trkpt><trkpt lat="41.974217374896085" lon="12.159349215348055"><ele>118.0</ele><time>2026-04-11T14:19:59Z</time></trkpt><trkpt lat="41.97414629467359" lon="12.159357418077333"><ele>118.0</ele><time>2026-04-11T14:20:03Z</time></trkpt><trkpt lat="41.97407010971055" lon="12.159408281046078"><ele>118.0</ele><time>2026-04-11T14:20:05Z</time></trkpt><trkpt lat="41.974097056882904" lon="12.159494739329913"><ele>118.00000000000001</ele><time>2026-04-11T14:20:11Z</time></trkpt><trkpt lat="41.97415792788887" lon="12.159445331382814"><ele>118.0</ele><time>2026-04-11T14:21:08.999Z</time></trkpt><trkpt lat="41.97418698502644" lon="12.159328474351925"><ele>118.00000000000001</ele><time>2026-04-11T14:21:11.999Z</time></trkpt><trkpt lat="41.97416177158206" lon="12.159407344466402"><ele>118.0</ele><time>2026-04-11T14:21:23.999Z</time></trkpt><trkpt lat="41.97415115338" lon="12.159504604352783"><ele>118.0</ele><time>2026-04-11T14:21:27.999Z</time></trkpt><trkpt lat="41.97416296314803" lon="12.159385016167295"><ele>118.0</ele><time>2026-04-11T14:21:41Z</time></trkpt><trkpt lat="41.974171757042164" lon="12.159301132277156"><ele>118.00000000000001</ele><time>2026-04-11T14:21:45Z</time></trkpt><trkpt lat="41.97416881070716" lon="12.159415196586753"><ele>118.0</ele><time>2026-04-11T14:21:49Z</time></trkpt><trkpt lat="41.97417972756169" lon="12.159543550839532"><ele>118.0</ele><time>2026-04-11T14:21:56Z</time></trkpt><trkpt lat="41.9741024745098" lon="12.15958242714728"><ele>118.0</ele><time>2026-04-11T14:22:02Z</time></trkpt><trkpt lat="41.97403087517064" lon="12.159633658513476"><ele>118.0</ele><time>2026-04-11T14:22:06Z</time></trkpt><trkpt lat="41.9739765481016" lon="12.159700856053764"><ele>118.0</ele><time>2026-04-11T14:22:10Z</time></trkpt><trkpt lat="41.97392480260623" lon="12.159758467403071"><ele>118.0</ele><time>2026-04-11T14:22:14Z</time></trkpt><trkpt lat="41.973896098217466" lon="12.159836255759524"><ele>118.0</ele><time>2026-04-11T14:22:19Z</time></trkpt><trkpt lat="41.97389481707165" lon="12.159929352150884"><ele>118.0</ele><time>2026-04-11T14:22:25Z</time></trkpt><trkpt lat="41.97396422078243" lon="12.159936156323782"><ele>118.0</ele><time>2026-04-11T14:22:28Z</time></trkpt><trkpt lat="41.97401115313121" lon="12.159862243706147"><ele>118.0</ele><time>2026-04-11T14:22:31Z</time></trkpt><trkpt lat="41.974052901060546" lon="12.159776934367683"><ele>118.0</ele><time>2026-04-11T14:22:35Z</time></trkpt><trkpt lat="41.97410808534914" lon="12.159722634229254"><ele>118.0</ele><time>2026-04-11T14:22:39.999Z</time></trkpt><trkpt lat="41.974170243723464" lon="12.159702411404146"><ele>118.0</ele><time>2026-04-11T14:22:43.999Z</time></trkpt><trkpt lat="41.97420949036291" lon="12.159772411984092"><ele>118.0</ele><time>2026-04-11T14:22:49.999Z</time></trkpt><trkpt lat="41.97415209401845" lon="12.159844152673942"><ele>118.0</ele><time>2026-04-11T14:23:01.999Z</time></trkpt><trkpt lat="41.97411869894531" lon="12.159939392806063"><ele>123.0</ele><time>2026-04-11T14:23:08.999Z</time></trkpt><trkpt lat="41.97407875601331" lon="12.1600417716736"><ele>123.0</ele><time>2026-04-11T14:23:14.999Z</time></trkpt></trkseg></trk></gpx>